createdAt,value
2022-08-01T00:01:57.847Z,4.53
2022-08-01T00:04:27.452Z,5.20
2022-08-01T00:06:57.141Z,4.03
2022-08-01T00:09:26.604Z,4.60
2022-08-01T00:11:59.635Z,4.55
2022-08-01T00:14:40.505Z,5.93
2022-08-01T00:17:10.124Z,4.63
2022-08-01T00:19:39.756Z,4.55
2022-08-01T00:22:09.393Z,4.07
2022-08-01T00:24:39.347Z,4.50
2022-08-01T00:27:08.833Z,4.60
2022-08-01T00:30:12.165Z,4.90
2022-08-01T00:32:29.616Z,4.45
2022-08-01T00:34:59.149Z,4.57
2022-08-01T00:37:28.791Z,4.60
2022-08-01T00:39:58.286Z,5.20
2022-08-01T00:42:29.210Z,5.25
2022-08-01T00:45:00.310Z,5.07
2022-08-01T00:47:29.970Z,4.80
2022-08-01T00:49:59.530Z,4.45
2022-08-01T00:52:29.344Z,4.55
2022-08-01T00:54:58.879Z,4.63
2022-08-01T00:58:03.302Z,5.03
2022-08-01T01:00:22.103Z,5.18
2022-08-01T01:02:57.189Z,5.50
2022-08-01T01:05:26.811Z,5.88
2022-08-01T01:08:03.663Z,5.05
2022-08-01T01:10:39.644Z,5.85
2022-08-01T01:13:12.268Z,6.30
2022-08-01T01:15:47.405Z,5.45
2022-08-01T01:18:25.117Z,5.40
2022-08-01T01:21:03.144Z,5.07
2022-08-01T01:23:47.213Z,5.07
2022-08-01T01:26:31.594Z,4.85
2022-08-01T01:29:11.514Z,5.78
2022-08-01T01:31:47.116Z,5.43
2022-08-01T01:34:20.125Z,5.65
2022-08-01T01:36:51.356Z,5.82
2022-08-01T01:39:23.149Z,5.75
2022-08-01T01:41:56.387Z,5.45
2022-08-01T01:44:29.008Z,4.82
2022-08-01T01:47:01.142Z,4.60
2022-08-01T01:49:32.673Z,4.80
2022-08-01T01:52:04.844Z,4.40
2022-08-01T01:54:38.955Z,4.40
2022-08-01T01:57:10.710Z,4.22
2022-08-01T01:59:43.901Z,3.75
2022-08-01T02:02:15.178Z,3.92
2022-08-01T02:04:48.050Z,4.20
2022-08-01T02:07:22.691Z,3.88
2022-08-01T02:09:54.133Z,3.67
2022-08-01T02:12:24.312Z,3.67
2022-08-01T02:14:57.484Z,3.50
2022-08-01T02:17:28.997Z,3.55
2022-08-01T02:20:00.173Z,3.70
2022-08-01T02:22:34.489Z,4.00
2022-08-01T02:25:08.757Z,3.30
2022-08-01T02:27:43.276Z,3.45
2022-08-01T02:30:18.937Z,3.22
2022-08-01T02:32:52.699Z,3.83
2022-08-01T02:35:26.156Z,3.78
2022-08-01T02:37:57.066Z,4.07
2022-08-01T02:40:29.383Z,4.40
2022-08-01T02:43:01.809Z,4.40
2022-08-01T02:45:36.039Z,4.40
2022-08-01T02:48:10.901Z,3.90
2022-08-01T02:50:41.492Z,3.60
2022-08-01T02:53:13.880Z,3.72
2022-08-01T02:55:46.405Z,3.65
2022-08-01T02:58:18.400Z,3.72
2022-08-01T03:00:50.578Z,3.30
2022-08-01T03:03:20.927Z,3.33
2022-08-01T03:05:52.106Z,3.50
2022-08-01T03:08:23.925Z,3.63
2022-08-01T03:10:55.657Z,3.47
2022-08-01T03:13:25.783Z,3.80
2022-08-01T03:15:58.612Z,4.05
2022-08-01T03:18:29.578Z,3.47
2022-08-01T03:21:01.978Z,3.95
2022-08-01T03:23:38.430Z,3.60
2022-08-01T03:26:08.984Z,3.60
2022-08-01T03:28:39.725Z,3.80
2022-08-01T03:31:11.563Z,3.40
2022-08-01T03:33:41.151Z,3.85
2022-08-01T03:36:14.412Z,4.20
2022-08-01T03:38:45.810Z,3.60
2022-08-01T03:41:22.356Z,3.30
2022-08-01T03:43:58.720Z,3.28
2022-08-01T03:46:38.300Z,3.20
2022-08-01T03:49:14.754Z,3.80
2022-08-01T03:51:46.457Z,3.60
2022-08-01T03:54:17.270Z,3.30
2022-08-01T03:56:48.919Z,3.40
2022-08-01T03:59:20.373Z,3.55
2022-08-01T04:01:51.671Z,3.92
2022-08-01T04:04:21.557Z,3.42
2022-08-01T04:06:55.271Z,3.22
2022-08-01T04:09:25.059Z,3.38
2022-08-01T04:11:54.527Z,3.47
2022-08-01T04:14:24.050Z,3.10
2022-08-01T04:16:55.020Z,3.50
2022-08-01T04:19:24.952Z,3.22
2022-08-01T04:21:54.472Z,3.50
2022-08-01T04:24:27.213Z,3.30
2022-08-01T04:26:57.441Z,3.17
2022-08-01T04:29:28.089Z,2.92
2022-08-01T04:32:01.688Z,3.30
2022-08-01T04:34:36.093Z,3.10
2022-08-01T04:37:07.472Z,3.00
2022-08-01T04:39:50.621Z,3.00
2022-08-01T04:42:26.004Z,3.45
2022-08-01T04:45:03.330Z,3.30
2022-08-01T04:47:35.259Z,3.17
2022-08-01T04:50:09.790Z,3.13
2022-08-01T04:52:43.427Z,2.85
2022-08-01T04:55:13.138Z,2.88
2022-08-01T04:57:46.197Z,3.20
2022-08-01T05:00:20.021Z,3.15
2022-08-01T05:02:51.037Z,3.30
2022-08-01T05:05:21.930Z,3.10
2022-08-01T05:07:51.527Z,3.00
2022-08-01T05:10:21.158Z,2.70
2022-08-01T05:12:50.715Z,3.47
2022-08-01T05:15:27.377Z,3.22
2022-08-01T05:17:58.997Z,3.10
2022-08-01T05:20:28.679Z,3.30
2022-08-01T05:22:58.550Z,3.35
2022-08-01T05:25:56.368Z,3.78
2022-08-01T05:28:19.430Z,3.42
2022-08-01T05:30:49.158Z,4.90
2022-08-01T05:33:22.076Z,4.47
2022-08-01T05:35:51.677Z,3.90
2022-08-01T05:38:22.233Z,4.40
2022-08-01T05:40:52.108Z,3.70
2022-08-01T05:43:25.501Z,3.47
2022-08-01T05:45:57.929Z,3.25
2022-08-01T05:48:29.168Z,3.60
2022-08-01T05:50:59.082Z,3.97
2022-08-01T05:53:28.913Z,4.22
2022-08-01T05:55:58.790Z,3.60
2022-08-01T05:58:28.233Z,4.70
2022-08-01T06:00:57.766Z,4.20
2022-08-01T06:03:32.453Z,4.32
2022-08-01T06:06:02.256Z,3.70
2022-08-01T06:08:31.763Z,4.28
2022-08-01T06:11:01.412Z,4.13
2022-08-01T06:13:30.958Z,4.57
2022-08-01T06:16:00.492Z,3.88
2022-08-01T06:18:31.497Z,4.07
2022-08-01T06:21:01.085Z,3.78
2022-08-01T06:23:31.803Z,4.18
2022-08-01T06:26:02.653Z,4.00
2022-08-01T06:28:32.461Z,3.70
2022-08-01T06:31:02.272Z,3.88
2022-08-01T06:33:33.261Z,4.55
2022-08-01T06:36:03.406Z,4.40
2022-08-01T06:38:33.897Z,4.03
2022-08-01T06:41:03.657Z,3.85
2022-08-01T06:43:33.267Z,4.25
2022-08-01T06:46:04.776Z,3.65
2022-08-01T06:48:36.663Z,3.88
2022-08-01T06:51:15.204Z,3.47
2022-08-01T06:53:44.954Z,3.53
2022-08-01T06:56:14.643Z,3.80
2022-08-01T06:58:44.200Z,4.30
2022-08-01T07:01:13.753Z,3.85
2022-08-01T07:03:54.544Z,3.92
2022-08-01T07:06:25.870Z,3.50
2022-08-01T07:08:55.809Z,3.70
2022-08-01T07:11:26.476Z,3.90
2022-08-01T07:13:55.976Z,4.30
2022-08-01T07:16:25.383Z,4.38
2022-08-01T07:18:56.396Z,3.75
2022-08-01T07:21:38.708Z,3.83
2022-08-01T07:24:13.810Z,3.90
2022-08-01T07:26:52.139Z,3.80
2022-08-01T07:29:25.180Z,4.00
2022-08-01T07:31:55.602Z,4.28
2022-08-01T07:34:27.337Z,4.40
2022-08-01T07:36:56.752Z,4.32
2022-08-01T07:39:26.203Z,3.72
2022-08-01T07:42:07.325Z,4.07
2022-08-01T07:44:37.808Z,3.90
2022-08-01T07:47:08.055Z,4.30
2022-08-01T07:49:41.028Z,4.50
2022-08-01T07:52:12.396Z,3.58
2022-08-01T07:54:42.509Z,3.70
2022-08-01T07:57:12.466Z,4.05
2022-08-01T07:59:41.849Z,4.00
2022-08-01T08:02:11.793Z,3.78
2022-08-01T08:04:45.792Z,3.97
2022-08-01T08:07:18.456Z,4.00
2022-08-01T08:09:51.095Z,3.47
2022-08-01T08:12:20.956Z,3.78
2022-08-01T08:14:59.822Z,3.70
2022-08-01T08:17:29.380Z,3.58
2022-08-01T08:20:09.936Z,3.60
2022-08-01T08:22:40.368Z,3.53
2022-08-01T08:25:10.796Z,3.90
2022-08-01T08:27:41.452Z,3.60
2022-08-01T08:30:12.866Z,3.30
2022-08-01T08:32:42.738Z,3.70
2022-08-01T08:35:17.242Z,3.30
2022-08-01T08:37:56.082Z,3.53
2022-08-01T08:40:42.373Z,3.10
2022-08-01T08:43:13.215Z,3.35
2022-08-01T08:45:58.803Z,2.88
2022-08-01T08:48:29.268Z,3.10
2022-08-01T08:51:02.299Z,2.88
2022-08-01T08:53:34.817Z,3.13
2022-08-01T08:56:05.416Z,3.15
2022-08-01T08:58:38.852Z,3.22
2022-08-01T09:01:09.909Z,2.95
2022-08-01T09:03:42.746Z,3.47
2022-08-01T09:06:14.479Z,3.30
2022-08-01T09:08:44.299Z,3.13
2022-08-01T09:11:18.696Z,2.83
2022-08-01T09:14:06.487Z,2.88
2022-08-01T09:16:37.414Z,3.22
2022-08-01T09:19:15.957Z,3.10
2022-08-01T09:22:02.203Z,3.00
2022-08-01T09:24:35.174Z,3.08
2022-08-01T09:27:20.999Z,2.80
2022-08-01T09:29:59.757Z,2.60
2022-08-01T09:32:36.242Z,2.83
2022-08-01T09:35:30.421Z,2.30
2022-08-01T09:38:23.171Z,2.42
2022-08-01T09:40:55.645Z,2.90
2022-08-01T09:43:29.386Z,2.85
2022-08-01T09:46:01.991Z,2.80
2022-08-01T09:48:33.891Z,2.45
2022-08-01T09:51:07.132Z,2.40
2022-08-01T09:53:52.604Z,2.63
2022-08-01T09:56:24.444Z,2.58
2022-08-01T09:58:59.844Z,2.47
2022-08-01T10:01:37.011Z,2.40
2022-08-01T10:04:13.306Z,2.70
2022-08-01T10:06:45.584Z,2.60
2022-08-01T10:09:17.053Z,2.85
2022-08-01T10:11:47.253Z,2.45
2022-08-01T10:14:21.068Z,2.30
2022-08-01T10:16:53.877Z,2.22
2022-08-01T10:19:30.491Z,2.58
2022-08-01T10:22:03.196Z,2.47
2022-08-01T10:24:34.705Z,2.60
2022-08-01T10:27:08.348Z,2.50
2022-08-01T10:30:05.552Z,2.10
2022-08-01T10:32:36.225Z,2.30
2022-08-01T10:35:07.430Z,2.38
2022-08-01T10:37:51.989Z,2.30
2022-08-01T10:40:30.314Z,2.22
2022-08-01T10:43:01.128Z,2.60
2022-08-01T10:45:31.500Z,2.30
2022-08-01T10:48:07.098Z,2.00
2022-08-01T10:50:43.457Z,2.33
2022-08-01T10:53:23.893Z,1.90
2022-08-01T10:56:07.273Z,1.92
2022-08-01T10:58:42.834Z,2.20
2022-08-01T11:01:22.700Z,2.50
2022-08-01T11:04:17.962Z,2.40
2022-08-01T11:07:06.635Z,2.22
2022-08-01T11:09:51.373Z,2.20
2022-08-01T11:12:24.969Z,2.15
2022-08-01T11:15:29.096Z,2.13
2022-08-01T11:18:08.324Z,2.30
2022-08-01T11:21:59.278Z,2.40
2022-08-01T11:23:53.174Z,2.47
2022-08-01T11:26:29.473Z,2.63
2022-08-01T11:29:22.535Z,2.25
2022-08-01T11:31:53.718Z,2.45
2022-08-01T11:34:43.236Z,2.38
2022-08-01T11:37:30.572Z,2.30
2022-08-01T11:40:22.905Z,2.30
2022-08-01T11:43:21.331Z,2.70
2022-08-01T11:45:54.073Z,2.58
2022-08-01T11:48:27.841Z,2.10
2022-08-01T11:50:58.267Z,2.40
2022-08-01T11:53:36.805Z,2.50
2022-08-01T11:56:06.643Z,2.47
2022-08-01T11:58:36.143Z,2.38
2022-08-01T12:01:08.514Z,2.10
2022-08-01T12:03:38.104Z,2.30
2022-08-01T12:06:07.875Z,2.22
2022-08-01T12:08:37.991Z,2.20
2022-08-01T12:11:07.902Z,2.33
2022-08-01T12:13:44.601Z,2.40
2022-08-01T12:16:15.832Z,2.30
2022-08-01T12:18:46.166Z,2.20
2022-08-01T12:21:15.745Z,2.40
2022-08-01T12:23:45.331Z,2.25
2022-08-01T12:26:26.593Z,2.38
2022-08-01T12:29:01.861Z,2.30
2022-08-01T12:31:37.315Z,2.50
2022-08-01T12:34:35.451Z,2.58
2022-08-01T12:37:05.985Z,2.50
2022-08-01T12:39:40.055Z,2.53
2022-08-01T12:42:12.007Z,2.90
2022-08-01T12:44:42.857Z,2.40
2022-08-01T12:47:15.168Z,2.33
2022-08-01T12:49:46.683Z,2.40
2022-08-01T12:52:18.668Z,2.30
2022-08-01T12:55:06.419Z,2.38
2022-08-01T12:57:40.820Z,2.50
2022-08-01T13:00:16.496Z,2.22
2022-08-01T13:02:48.420Z,2.10
2022-08-01T13:05:19.350Z,2.20
2022-08-01T13:07:52.525Z,1.90
2022-08-01T13:10:29.578Z,2.40
2022-08-01T13:13:01.661Z,2.20
2022-08-01T13:15:33.790Z,2.28
2022-08-01T13:18:26.276Z,2.05
2022-08-01T13:21:11.850Z,2.20
2022-08-01T13:24:01.259Z,2.15
2022-08-01T13:26:45.339Z,2.08
2022-08-01T13:29:17.749Z,2.28
2022-08-01T13:31:47.420Z,1.88
2022-08-01T13:34:20.008Z,2.00
2022-08-01T13:36:50.148Z,2.20
2022-08-01T13:39:36.587Z,2.00
2022-08-01T13:42:06.743Z,2.00
2022-08-01T13:44:38.638Z,2.20
2022-08-01T13:47:15.113Z,1.95
2022-08-01T13:49:49.829Z,2.13
2022-08-01T13:52:19.429Z,1.83
2022-08-01T13:54:48.847Z,1.90
2022-08-01T13:57:20.438Z,1.98
2022-08-01T13:59:49.857Z,1.77
2022-08-01T14:02:19.537Z,2.00
2022-08-01T14:04:50.496Z,1.88
2022-08-01T14:07:20.079Z,1.90
2022-08-01T14:10:17.546Z,1.90
2022-08-01T14:12:40.576Z,1.80
2022-08-01T14:15:11.257Z,1.83
2022-08-01T14:17:47.791Z,1.90
2022-08-01T14:20:21.038Z,2.22
2022-08-01T14:22:50.698Z,1.70
2022-08-01T14:25:57.695Z,1.85
2022-08-01T14:28:12.857Z,1.85
2022-08-01T14:30:43.879Z,1.98
2022-08-01T14:33:14.041Z,1.75
2022-08-01T14:36:03.550Z,1.85
2022-08-01T14:38:34.663Z,1.90
2022-08-01T14:41:04.770Z,1.90
2022-08-01T14:43:34.478Z,1.88
2022-08-01T14:46:04.929Z,1.98
2022-08-01T14:48:34.613Z,2.08
2022-08-01T14:51:05.625Z,1.70
2022-08-01T14:53:36.245Z,1.77
2022-08-01T14:56:06.344Z,1.95
2022-08-01T14:58:35.983Z,1.67
2022-08-01T15:01:07.091Z,2.03
2022-08-01T15:03:36.664Z,1.88
2022-08-01T15:06:10.964Z,1.70
2022-08-01T15:08:40.846Z,1.73
2022-08-01T15:11:10.574Z,1.90
2022-08-01T15:13:42.663Z,1.98
2022-08-01T15:16:13.995Z,2.00
2022-08-01T15:18:44.750Z,1.73
2022-08-01T15:21:34.406Z,2.00
2022-08-01T15:24:05.595Z,1.90
2022-08-01T15:26:35.026Z,2.20
2022-08-01T15:29:04.522Z,2.50
2022-08-01T15:31:36.327Z,1.85
2022-08-01T15:34:09.534Z,2.08
2022-08-01T15:36:43.497Z,2.10
2022-08-01T15:39:13.315Z,2.15
2022-08-01T15:41:42.775Z,1.70
2022-08-01T15:44:12.230Z,2.05
2022-08-01T15:46:41.849Z,2.35
2022-08-01T15:49:11.997Z,1.90
2022-08-01T15:51:43.663Z,1.80
2022-08-01T15:54:14.900Z,1.60
2022-08-01T15:56:44.636Z,1.92
2022-08-01T15:59:14.526Z,1.90
2022-08-01T16:01:44.276Z,1.58
2022-08-01T16:04:13.800Z,1.65
2022-08-01T16:06:45.380Z,2.20
2022-08-01T16:09:19.251Z,1.80
2022-08-01T16:11:50.871Z,1.60
2022-08-01T16:14:21.781Z,1.55
2022-08-01T16:16:56.891Z,1.77
2022-08-01T16:19:26.537Z,1.80
2022-08-01T16:21:57.431Z,1.75
2022-08-01T16:24:29.517Z,1.90
2022-08-01T16:26:59.109Z,5.65
2022-08-01T16:29:31.079Z,1.70
2022-08-01T16:32:08.274Z,1.60
2022-08-01T16:34:50.350Z,1.67
2022-08-01T16:37:21.300Z,1.70
2022-08-01T16:39:51.027Z,1.90
2022-08-01T16:42:20.488Z,2.13
2022-08-01T16:44:50.097Z,1.58
2022-08-01T16:47:19.755Z,1.70
2022-08-01T16:49:49.446Z,1.27
2022-08-01T16:52:20.586Z,1.70
2022-08-01T16:54:50.134Z,1.42
2022-08-01T16:57:19.623Z,1.63
2022-08-01T16:59:51.404Z,1.50
2022-08-01T17:02:21.029Z,1.70
2022-08-01T17:04:50.564Z,1.67
2022-08-01T17:07:21.523Z,1.58
2022-08-01T17:09:51.065Z,1.58
2022-08-01T17:12:22.550Z,1.73
2022-08-01T17:14:52.375Z,1.60
2022-08-01T17:17:22.303Z,1.50
2022-08-01T17:19:51.904Z,1.52
2022-08-01T17:22:23.003Z,1.92
2022-08-01T17:24:52.661Z,1.58
2022-08-01T17:27:22.141Z,1.60
2022-08-01T17:29:52.032Z,1.50
2022-08-01T17:32:21.502Z,1.60
2022-08-01T17:34:51.732Z,1.48
2022-08-01T17:37:22.757Z,1.80
2022-08-01T17:39:52.433Z,1.40
2022-08-01T17:42:22.008Z,1.42
2022-08-01T17:44:54.341Z,1.70
2022-08-01T17:47:49.311Z,2.28
2022-08-01T17:50:16.563Z,2.53
2022-08-01T17:52:47.794Z,1.58
2022-08-01T17:55:53.931Z,1.60
2022-08-01T17:58:06.958Z,1.70
2022-08-01T18:00:37.850Z,1.85
2022-08-01T18:03:08.308Z,2.25
2022-08-01T18:05:40.000Z,4.00
2022-08-01T18:08:11.052Z,3.15
2022-08-01T18:10:40.693Z,3.10
2022-08-01T18:13:11.806Z,2.90
2022-08-01T18:15:41.393Z,3.60
2022-08-01T18:18:14.263Z,3.00
2022-08-01T18:20:43.923Z,2.15
2022-08-01T18:23:14.883Z,2.00
2022-08-01T18:25:44.598Z,2.35
2022-08-01T18:28:16.299Z,2.78
2022-08-01T18:30:59.547Z,2.58
2022-08-01T18:33:29.247Z,1.80
2022-08-01T18:36:01.645Z,1.77
2022-08-01T18:38:35.233Z,1.80
2022-08-01T18:41:10.713Z,1.63
2022-08-01T18:43:40.242Z,2.33
2022-08-01T18:46:10.328Z,1.70
2022-08-01T18:48:39.785Z,1.70
2022-08-01T18:51:11.543Z,1.92
2022-08-01T18:53:43.318Z,1.60
2022-08-01T18:56:16.646Z,1.70
2022-08-01T18:58:46.095Z,1.92
2022-08-01T19:01:15.665Z,1.60
2022-08-01T19:03:45.227Z,2.00
2022-08-01T19:06:14.875Z,1.70
2022-08-01T19:08:46.446Z,1.70
2022-08-01T19:11:16.016Z,1.73
2022-08-01T19:13:45.479Z,1.92
2022-08-01T19:16:16.857Z,2.00
2022-08-01T19:18:46.787Z,2.08
2022-08-01T19:21:18.026Z,2.08
2022-08-01T19:24:05.963Z,2.00
2022-08-01T19:26:36.499Z,1.80
2022-08-01T19:29:11.816Z,1.80
2022-08-01T19:31:48.408Z,2.10
2022-08-01T19:34:19.848Z,2.03
2022-08-01T19:36:57.797Z,1.70
2022-08-01T19:39:29.621Z,2.17
2022-08-01T19:42:00.856Z,2.30
2022-08-01T19:44:33.616Z,1.98
2022-08-01T19:47:03.687Z,2.20
2022-08-01T19:49:33.384Z,2.00
2022-08-01T19:52:04.781Z,2.00
2022-08-01T19:54:38.822Z,2.17
2022-08-01T19:57:11.982Z,2.00
2022-08-01T19:59:42.651Z,1.90
2022-08-01T20:02:12.223Z,2.10
2022-08-01T20:04:44.417Z,1.73
2022-08-01T20:07:15.207Z,1.92
2022-08-01T20:09:49.467Z,2.25
2022-08-01T20:12:24.201Z,2.00
2022-08-01T20:14:55.467Z,2.08
2022-08-01T20:17:25.976Z,2.30
2022-08-01T20:19:56.975Z,2.00
2022-08-01T20:22:29.702Z,2.22
2022-08-01T20:25:01.856Z,2.35
2022-08-01T20:27:33.120Z,1.83
2022-08-01T20:30:03.013Z,1.85
2022-08-01T20:32:34.821Z,2.03
2022-08-01T20:35:06.902Z,1.95
2022-08-01T20:38:03.824Z,2.13
2022-08-01T20:40:31.920Z,2.05
2022-08-01T20:43:01.518Z,2.20
2022-08-01T20:45:30.978Z,1.95
2022-08-01T20:48:00.803Z,2.25
2022-08-01T20:50:53.680Z,1.88
2022-08-01T20:53:24.797Z,2.35
2022-08-01T20:56:06.216Z,2.40
2022-08-01T20:58:47.907Z,2.10
2022-08-01T21:01:19.464Z,2.10
2022-08-01T21:04:01.429Z,2.33
2022-08-01T21:06:38.044Z,2.88
2022-08-01T21:09:09.053Z,2.10
2022-08-01T21:11:44.801Z,2.10
2022-08-01T21:14:20.121Z,2.17
2022-08-01T21:16:56.374Z,2.08
2022-08-01T21:21:55.782Z,2.10
2022-08-01T21:24:29.043Z,1.85
2022-08-01T21:26:59.238Z,2.45
2022-08-01T21:29:29.276Z,2.28
2022-08-01T21:32:13.513Z,2.60
2022-08-01T21:34:46.445Z,2.17
2022-08-01T21:37:19.252Z,3.10
2022-08-01T21:39:49.907Z,2.60
2022-08-01T21:42:19.746Z,2.20
2022-08-01T21:44:49.765Z,2.10
2022-08-01T21:47:19.577Z,2.70
2022-08-01T21:49:49.275Z,2.38
2022-08-01T21:52:22.316Z,2.45
2022-08-01T21:55:03.142Z,2.55
2022-08-01T21:57:46.276Z,3.00
2022-08-01T22:00:24.942Z,2.50
2022-08-01T22:03:04.205Z,2.50
2022-08-01T22:05:42.564Z,2.88
2022-08-01T22:08:27.033Z,2.95
2022-08-01T22:11:01.117Z,3.92
2022-08-01T22:13:30.939Z,2.40
2022-08-01T22:16:01.330Z,3.22
2022-08-01T22:18:30.930Z,3.22
2022-08-01T22:21:00.786Z,4.43
2022-08-01T22:23:36.614Z,3.70
2022-08-01T22:26:09.352Z,3.38
2022-08-01T22:28:40.441Z,2.60
2022-08-01T22:31:10.019Z,2.67
2022-08-01T22:33:40.750Z,2.95
2022-08-01T22:36:10.269Z,2.50
2022-08-01T22:38:41.470Z,2.22
2022-08-01T22:41:16.327Z,2.90
2022-08-01T22:43:58.361Z,2.50
2022-08-01T22:46:34.741Z,2.38
2022-08-01T22:49:22.676Z,2.30
2022-08-01T22:51:59.495Z,2.30
2022-08-01T22:54:37.027Z,2.35
2022-08-01T22:57:12.214Z,2.50
2022-08-01T22:59:48.413Z,2.40
2022-08-01T23:02:21.042Z,2.17
2022-08-01T23:04:51.992Z,2.05
2022-08-01T23:07:26.034Z,2.28
2022-08-01T23:09:58.736Z,2.00
2022-08-01T23:12:29.225Z,2.40
2022-08-01T23:15:00.391Z,2.22
2022-08-01T23:17:31.673Z,2.22
2022-08-01T23:20:02.713Z,2.30
2022-08-01T23:22:34.417Z,2.30
2022-08-01T23:25:08.240Z,2.30
2022-08-01T23:28:04.620Z,2.13
2022-08-01T23:30:30.475Z,2.13
2022-08-01T23:33:00.711Z,2.40
2022-08-01T23:35:31.853Z,2.17
2022-08-01T23:38:05.115Z,2.38
2022-08-01T23:40:36.593Z,2.53
2022-08-01T23:43:17.180Z,2.50
2022-08-01T23:46:03.572Z,2.65
2022-08-01T23:48:35.487Z,2.40
2022-08-01T23:51:05.755Z,2.88
2022-08-01T23:53:38.265Z,2.78
2022-08-01T23:56:09.876Z,2.95
2022-08-01T23:58:39.485Z,2.67
